createdAt,value
2018-06-17T00:01:03.723Z,76.40
2018-06-17T00:03:32.235Z,76.60
2018-06-17T00:06:00.733Z,76.70
2018-06-17T00:08:29.290Z,76.60
2018-06-17T00:10:58.916Z,76.80
2018-06-17T00:13:27.370Z,77.10
2018-06-17T00:15:55.952Z,76.90
2018-06-17T00:18:24.430Z,76.50
2018-06-17T00:20:52.968Z,76.60
2018-06-17T00:23:21.360Z,76.70
2018-06-17T00:25:49.904Z,77.10
2018-06-17T00:28:19.053Z,77.70
2018-06-17T00:30:48.543Z,77.40
2018-06-17T00:33:17.051Z,77.30
2018-06-17T00:35:45.506Z,77.30
2018-06-17T00:38:13.988Z,77.60
2018-06-17T00:40:43.572Z,77.20
2018-06-17T00:43:12.071Z,77.10
2018-06-17T00:45:40.569Z,77.00
2018-06-17T00:48:09.085Z,77.10
2018-06-17T00:50:38.647Z,77.50
2018-06-17T00:53:07.027Z,77.50
2018-06-17T00:55:35.544Z,77.60
2018-06-17T00:58:04.072Z,77.80
2018-06-17T01:00:32.621Z,77.60
2018-06-17T01:03:01.017Z,77.10
2018-06-17T01:05:29.524Z,76.80
2018-06-17T01:07:57.999Z,76.50
2018-06-17T01:10:26.576Z,76.70
2018-06-17T01:12:55.116Z,77.30
2018-06-17T01:17:51.820Z,78.30
2018-06-17T01:20:21.336Z,78.90
2018-06-17T01:22:49.852Z,79.00
2018-06-17T01:25:19.048Z,78.80
2018-06-17T01:27:47.662Z,78.40
2018-06-17T01:30:18.062Z,78.00
2018-06-17T01:32:46.902Z,77.40
2018-06-17T01:35:15.524Z,78.30
2018-06-17T01:37:44.027Z,77.90
2018-06-17T01:40:13.552Z,77.00
2018-06-17T01:42:42.088Z,77.40
2018-06-17T01:45:10.672Z,77.70
2018-06-17T01:47:39.252Z,77.50
2018-06-17T01:50:07.800Z,78.20
2018-06-17T01:52:36.275Z,78.10
2018-06-17T01:55:04.856Z,78.20
2018-06-17T01:57:33.287Z,77.70
2018-06-17T02:00:01.865Z,78.70
2018-06-17T02:02:30.315Z,77.50
2018-06-17T02:05:04.112Z,78.20
2018-06-17T02:07:37.869Z,78.30
2018-06-17T02:10:13.214Z,78.40
2018-06-17T02:12:41.666Z,78.30
2018-06-17T02:15:10.287Z,78.30
2018-06-17T02:17:38.733Z,77.90
2018-06-17T02:20:07.279Z,78.30
2018-06-17T02:22:56.380Z,78.30
2018-06-17T02:25:24.903Z,78.40
2018-06-17T02:27:53.392Z,78.30
2018-06-17T02:30:22.826Z,78.60
2018-06-17T02:32:51.352Z,78.70
2018-06-17T02:35:19.869Z,78.60
2018-06-17T02:37:48.877Z,78.50
2018-06-17T02:40:19.278Z,78.90
2018-06-17T02:42:48.334Z,79.10
2018-06-17T02:45:22.148Z,79.00
2018-06-17T02:47:55.976Z,79.40
2018-06-17T02:50:29.860Z,79.60
2018-06-17T02:54:05.491Z,79.80
2018-06-17T02:56:33.961Z,79.50
2018-06-17T02:59:02.546Z,79.80
2018-06-17T03:01:31.062Z,79.20
2018-06-17T03:03:59.564Z,78.20
2018-06-17T03:06:28.215Z,79.20
2018-06-17T03:08:56.647Z,78.80
2018-06-17T03:11:25.137Z,79.00
2018-06-17T03:13:53.699Z,79.00
2018-06-17T03:16:22.105Z,79.50
2018-06-17T03:18:50.593Z,79.10
2018-06-17T03:21:19.925Z,79.60
2018-06-17T03:23:49.182Z,79.70
2018-06-17T03:26:23.048Z,79.80
2018-06-17T03:28:56.986Z,80.20
2018-06-17T03:31:25.556Z,80.10
2018-06-17T03:33:54.922Z,80.30
2018-06-17T03:36:23.384Z,80.40
2018-06-17T03:38:51.882Z,81.30
2018-06-17T03:41:20.337Z,80.60
2018-06-17T03:43:49.689Z,80.70
2018-06-17T03:46:19.068Z,80.40
2018-06-17T03:48:47.695Z,80.30
2018-06-17T03:51:16.188Z,80.50
2018-06-17T03:53:44.677Z,80.90
2018-06-17T03:56:13.172Z,80.50
2018-06-17T03:58:41.637Z,81.10
2018-06-17T04:01:10.156Z,80.20
2018-06-17T04:03:38.727Z,80.40
2018-06-17T04:06:07.235Z,80.20
2018-06-17T04:08:35.788Z,80.50
2018-06-17T04:11:04.308Z,80.70
2018-06-17T04:13:32.806Z,81.00
2018-06-17T04:16:01.314Z,81.60
2018-06-17T04:18:30.131Z,81.20
2018-06-17T04:23:26.897Z,81.50
2018-06-17T04:25:55.334Z,81.10
2018-06-17T04:28:23.874Z,81.20
2018-06-17T04:30:52.327Z,81.70
2018-06-17T04:33:20.828Z,81.50
2018-06-17T04:35:49.908Z,81.80
2018-06-17T04:38:19.476Z,81.80
2018-06-17T04:40:48.549Z,81.80
2018-06-17T04:43:17.778Z,82.30
2018-06-17T04:45:46.319Z,81.40
2018-06-17T04:48:14.835Z,81.20
2018-06-17T04:50:43.267Z,81.10
2018-06-17T04:53:11.788Z,81.10
2018-06-17T04:55:40.246Z,81.30
2018-06-17T04:58:08.810Z,81.60
2018-06-17T05:00:37.262Z,81.30
2018-06-17T05:03:05.802Z,81.50
2018-06-17T05:05:34.281Z,81.80
2018-06-17T05:08:02.827Z,81.80
2018-06-17T05:10:31.289Z,81.60
2018-06-17T05:12:59.811Z,82.30
2018-06-17T05:15:28.248Z,81.80
2018-06-17T05:17:56.859Z,82.20
2018-06-17T05:20:25.368Z,81.80
2018-06-17T05:22:53.944Z,82.00
2018-06-17T05:25:22.464Z,81.50
2018-06-17T05:27:51.061Z,81.30
2018-06-17T05:30:20.571Z,81.70
2018-06-17T05:32:49.653Z,81.70
2018-06-17T05:35:18.721Z,81.10
2018-06-17T05:37:47.319Z,81.80
2018-06-17T05:40:15.828Z,81.90
2018-06-17T05:42:44.406Z,81.30
2018-06-17T05:45:12.852Z,81.20
2018-06-17T05:47:41.390Z,81.90
2018-06-17T05:50:10.853Z,82.00
2018-06-17T05:52:39.389Z,81.90
2018-06-17T05:55:07.911Z,81.90
2018-06-17T05:57:36.296Z,80.90
2018-06-17T06:00:05.213Z,81.20
2018-06-17T06:02:33.737Z,80.70
2018-06-17T06:05:02.271Z,81.20
2018-06-17T06:07:30.712Z,80.50
2018-06-17T06:09:59.216Z,80.90
2018-06-17T06:12:27.691Z,81.10
2018-06-17T06:14:56.260Z,82.40
2018-06-17T06:17:24.816Z,81.50
2018-06-17T06:19:53.381Z,81.40
2018-06-17T06:22:52.868Z,81.00
2018-06-17T06:25:21.367Z,81.20
2018-06-17T06:27:49.937Z,81.00
2018-06-17T06:30:19.163Z,81.10
2018-06-17T06:32:47.722Z,81.00
2018-06-17T06:35:16.228Z,80.70
2018-06-17T06:37:44.743Z,80.90
2018-06-17T06:40:13.158Z,81.00
2018-06-17T06:42:41.658Z,81.00
2018-06-17T06:45:10.201Z,81.00
2018-06-17T06:47:38.675Z,80.80
2018-06-17T06:50:07.197Z,81.60
2018-06-17T06:52:35.874Z,81.30
2018-06-17T06:55:04.425Z,80.80
2018-06-17T06:57:33.077Z,81.60
2018-06-17T07:00:01.727Z,81.00
2018-06-17T07:02:41.690Z,81.10
2018-06-17T07:05:21.424Z,81.50
2018-06-17T07:08:01.408Z,81.10
2018-06-17T07:10:30.478Z,81.10
2018-06-17T07:12:59.072Z,81.50
2018-06-17T07:15:39.407Z,81.40
2018-06-17T07:18:38.546Z,81.00
2018-06-17T07:21:07.475Z,81.10
2018-06-17T07:23:35.965Z,81.00
2018-06-17T07:26:42.050Z,80.90
2018-06-17T07:29:23.241Z,81.00
2018-06-17T07:31:51.769Z,81.30
2018-06-17T07:34:20.251Z,81.10
2018-06-17T07:36:49.441Z,80.50
2018-06-17T07:41:35.703Z,80.60
2018-06-17T07:44:04.356Z,80.00
2018-06-17T07:46:32.856Z,78.80
2018-06-17T07:49:39.465Z,78.60
2018-06-17T07:52:19.975Z,78.90
2018-06-17T07:54:49.167Z,79.10
2018-06-17T07:57:19.024Z,78.90
2018-06-17T07:59:48.155Z,78.70
2018-06-17T08:02:17.103Z,77.30
2018-06-17T08:04:45.617Z,78.30
2018-06-17T08:07:14.326Z,78.40
2018-06-17T08:09:42.901Z,78.40
2018-06-17T08:12:12.099Z,78.60
2018-06-17T08:14:40.831Z,79.40
2018-06-17T08:17:09.327Z,78.00
2018-06-17T08:19:39.176Z,77.80
2018-06-17T08:22:07.611Z,77.90
2018-06-17T08:24:36.543Z,77.60
2018-06-17T08:27:05.056Z,77.20
2018-06-17T08:29:33.509Z,77.30
2018-06-17T08:32:02.068Z,78.00
2018-06-17T08:34:30.532Z,78.80
2018-06-17T08:36:59.368Z,76.90
2018-06-17T08:39:27.749Z,76.30
2018-06-17T08:41:56.280Z,75.50
2018-06-17T08:44:24.786Z,76.70
2018-06-17T08:46:53.376Z,75.70
2018-06-17T08:49:21.975Z,76.30
2018-06-17T08:51:50.490Z,75.00
2018-06-17T08:54:19.040Z,76.00
2018-06-17T08:56:48.446Z,75.80
2018-06-17T08:59:17.153Z,75.50
2018-06-17T09:01:45.591Z,74.40
2018-06-17T09:04:14.076Z,74.20
2018-06-17T09:06:42.749Z,74.40
2018-06-17T09:09:12.326Z,74.10
2018-06-17T09:11:40.792Z,74.40
2018-06-17T09:14:09.199Z,73.60
2018-06-17T09:16:37.763Z,74.20
2018-06-17T09:19:06.291Z,74.60
2018-06-17T09:21:34.831Z,74.90
2018-06-17T09:24:03.324Z,75.10
2018-06-17T09:26:31.805Z,75.50
2018-06-17T09:29:00.348Z,75.50
2018-06-17T09:31:28.867Z,75.60
2018-06-17T09:33:57.262Z,75.90
2018-06-17T09:36:25.856Z,76.00
2018-06-17T09:38:54.317Z,76.40
2018-06-17T09:41:22.899Z,76.10
2018-06-17T09:43:51.378Z,76.20
2018-06-17T09:48:48.900Z,76.40
2018-06-17T09:51:17.464Z,76.30
2018-06-17T09:53:46.100Z,76.10
2018-06-17T09:56:14.618Z,76.30
2018-06-17T09:58:43.143Z,75.90
2018-06-17T10:01:11.643Z,76.20
2018-06-17T10:03:40.213Z,76.40
2018-06-17T10:06:08.644Z,77.00
2018-06-17T10:08:37.148Z,77.00
2018-06-17T10:11:07.507Z,76.40
2018-06-17T10:13:40.617Z,76.40
2018-06-17T10:16:09.498Z,76.70
2018-06-17T10:18:37.971Z,74.90
2018-06-17T10:21:06.612Z,75.80
2018-06-17T10:23:35.241Z,74.90
2018-06-17T10:26:04.210Z,74.90
2018-06-17T10:28:33.646Z,75.40
2018-06-17T10:31:04.045Z,75.90
2018-06-17T10:33:32.585Z,75.10
2018-06-17T10:36:01.181Z,74.30
2018-06-17T10:38:29.792Z,75.50
2018-06-17T10:40:58.328Z,73.70
2018-06-17T10:43:28.586Z,74.10
2018-06-17T10:45:57.319Z,73.10
2018-06-17T10:48:25.767Z,74.50
2018-06-17T10:50:54.671Z,75.50
2018-06-17T10:53:23.119Z,74.50
2018-06-17T10:55:51.790Z,74.70
2018-06-17T10:58:20.425Z,75.20
2018-06-17T11:00:49.549Z,74.50
2018-06-17T11:03:18.374Z,75.30
2018-06-17T11:05:47.237Z,75.20
2018-06-17T11:08:15.718Z,75.20
2018-06-17T11:10:45.329Z,74.50
2018-06-17T11:13:13.878Z,75.10
2018-06-17T11:15:42.524Z,74.90
2018-06-17T11:18:10.923Z,75.00
2018-06-17T11:20:40.469Z,75.20
2018-06-17T11:23:08.954Z,74.50
2018-06-17T11:25:37.452Z,75.20
2018-06-17T11:28:06.061Z,74.40
2018-06-17T11:30:35.601Z,75.00
2018-06-17T11:33:04.118Z,75.00
2018-06-17T11:35:32.594Z,74.90
2018-06-17T11:38:01.117Z,74.70
2018-06-17T11:40:29.669Z,74.30
2018-06-17T11:42:58.161Z,74.10
2018-06-17T11:45:27.248Z,73.60
2018-06-17T11:47:55.759Z,74.10
2018-06-17T11:50:24.276Z,73.70
2018-06-17T11:52:52.701Z,74.00
2018-06-17T11:55:21.312Z,72.90
2018-06-17T11:57:50.247Z,73.00
2018-06-17T12:00:19.779Z,73.50
2018-06-17T12:02:49.000Z,73.40
2018-06-17T12:05:17.582Z,73.10
2018-06-17T12:07:46.099Z,73.30
2018-06-17T12:10:15.608Z,73.50
2018-06-17T12:12:44.079Z,74.30
2018-06-17T12:15:12.580Z,73.60
2018-06-17T12:17:41.168Z,73.90
2018-06-17T12:20:10.648Z,73.90
2018-06-17T12:22:39.132Z,73.60
2018-06-17T12:25:07.563Z,73.80
2018-06-17T12:27:36.035Z,71.80
2018-06-17T12:30:04.918Z,72.20
2018-06-17T12:32:33.369Z,73.00
2018-06-17T12:35:01.808Z,72.90
2018-06-17T12:37:30.279Z,72.10
2018-06-17T12:39:58.882Z,73.00
2018-06-17T12:42:27.458Z,72.60
2018-06-17T12:44:56.103Z,71.50
2018-06-17T12:47:24.616Z,71.50
2018-06-17T12:49:53.152Z,70.80
2018-06-17T12:52:21.602Z,69.60
2018-06-17T12:54:50.153Z,70.60
2018-06-17T12:57:19.412Z,71.20
2018-06-17T12:59:48.178Z,70.80
2018-06-17T13:02:16.640Z,69.90
2018-06-17T13:04:45.215Z,70.60
2018-06-17T13:07:13.839Z,70.20
2018-06-17T13:09:42.436Z,69.30
2018-06-17T13:12:10.856Z,69.10
2018-06-17T13:14:39.345Z,69.40
2018-06-17T13:17:07.842Z,70.10
2018-06-17T13:19:38.010Z,69.90
2018-06-17T13:22:37.861Z,70.00
2018-06-17T13:25:06.281Z,69.30
2018-06-17T13:27:34.856Z,70.30
2018-06-17T13:30:03.492Z,69.00
2018-06-17T13:32:32.059Z,69.20
2018-06-17T13:35:00.513Z,68.90
2018-06-17T13:37:29.020Z,69.30
2018-06-17T13:39:57.472Z,69.30
2018-06-17T13:42:25.974Z,68.80
2018-06-17T13:44:54.449Z,69.20
2018-06-17T13:47:23.003Z,68.30
2018-06-17T13:49:51.493Z,69.80
2018-06-17T13:52:20.872Z,69.70
2018-06-17T13:54:49.957Z,69.80
2018-06-17T13:57:18.652Z,69.90
2018-06-17T13:59:47.259Z,68.90
2018-06-17T14:02:15.800Z,69.70
2018-06-17T14:04:44.327Z,69.00
2018-06-17T14:07:12.876Z,68.10
2018-06-17T14:09:41.320Z,69.60
2018-06-17T14:12:09.791Z,68.20
2018-06-17T14:14:38.276Z,70.00
2018-06-17T14:17:06.778Z,69.80
2018-06-17T14:19:35.366Z,69.80
2018-06-17T14:22:03.883Z,69.10
2018-06-17T14:24:32.391Z,68.00
2018-06-17T14:27:00.857Z,68.30
2018-06-17T14:29:29.342Z,67.90
2018-06-17T14:31:57.780Z,68.00
2018-06-17T14:34:26.561Z,68.30
2018-06-17T14:36:55.021Z,68.20
2018-06-17T14:39:23.640Z,68.50
2018-06-17T14:41:58.633Z,67.80
2018-06-17T14:44:32.424Z,66.70
2018-06-17T14:47:06.415Z,67.30
2018-06-17T14:49:40.087Z,66.80
2018-06-17T14:52:14.099Z,65.90
2018-06-17T14:54:42.628Z,67.40
2018-06-17T14:57:11.501Z,67.10
2018-06-17T14:59:39.922Z,66.20
2018-06-17T15:04:36.516Z,67.40
2018-06-17T15:07:05.271Z,66.50
2018-06-17T15:09:33.662Z,67.20
2018-06-17T15:12:02.188Z,66.60
2018-06-17T15:14:31.924Z,65.10
2018-06-17T15:17:00.512Z,66.20
2018-06-17T15:19:29.033Z,65.80
2018-06-17T15:21:57.609Z,63.00
2018-06-17T15:24:26.025Z,65.00
2018-06-17T15:26:54.535Z,62.40
2018-06-17T15:29:22.946Z,63.90
2018-06-17T15:31:56.848Z,64.00
2018-06-17T15:34:30.580Z,64.90
2018-06-17T15:38:02.027Z,63.80
2018-06-17T15:40:35.942Z,65.10
2018-06-17T15:43:04.608Z,63.90
2018-06-17T15:45:33.360Z,62.40
2018-06-17T15:48:01.792Z,62.70
2018-06-17T15:50:30.363Z,63.50
2018-06-17T15:52:59.009Z,64.20
2018-06-17T15:55:27.522Z,64.70
2018-06-17T15:57:55.960Z,64.50
2018-06-17T16:00:24.785Z,64.30
2018-06-17T16:02:53.553Z,63.90
2018-06-17T16:05:22.072Z,64.00
2018-06-17T16:07:51.193Z,64.80
2018-06-17T16:10:20.366Z,65.00
2018-06-17T16:12:54.952Z,64.50
2018-06-17T16:15:28.589Z,64.60
2018-06-17T16:18:02.536Z,65.10
2018-06-17T16:20:36.545Z,65.90
2018-06-17T16:23:05.188Z,66.10
2018-06-17T16:25:33.766Z,66.30
2018-06-17T16:28:02.218Z,67.20
2018-06-17T16:30:31.247Z,67.80
2018-06-17T16:33:00.092Z,67.70
2018-06-17T16:35:28.650Z,66.40
2018-06-17T16:37:57.177Z,65.60
2018-06-17T16:40:25.715Z,66.20
2018-06-17T16:42:54.222Z,65.50
2018-06-17T16:45:22.733Z,66.60
2018-06-17T16:47:51.294Z,67.40
2018-06-17T16:50:20.435Z,67.70
2018-06-17T16:52:54.809Z,67.00
2018-06-17T16:55:28.884Z,67.90
2018-06-17T16:58:02.589Z,68.40
2018-06-17T17:00:31.122Z,68.50
2018-06-17T17:02:59.598Z,68.80
2018-06-17T17:05:28.113Z,68.60
2018-06-17T17:07:56.811Z,68.00
2018-06-17T17:10:25.324Z,67.80
2018-06-17T17:12:53.804Z,67.50
2018-06-17T17:15:22.267Z,68.60
2018-06-17T17:17:50.814Z,69.30
2018-06-17T17:20:19.360Z,69.90
2018-06-17T17:22:48.731Z,70.40
2018-06-17T17:25:17.490Z,70.10
2018-06-17T17:27:45.975Z,70.80
2018-06-17T17:30:14.569Z,69.20
2018-06-17T17:32:48.627Z,69.40
2018-06-17T17:35:22.459Z,69.90
2018-06-17T17:37:56.244Z,70.00
2018-06-17T17:40:30.228Z,70.30
2018-06-17T17:42:58.698Z,70.70
2018-06-17T17:45:31.467Z,70.80
2018-06-17T17:47:59.890Z,71.00
2018-06-17T17:50:29.438Z,71.00
2018-06-17T17:52:57.965Z,70.70
2018-06-17T17:55:26.425Z,71.40
2018-06-17T17:57:54.817Z,70.50
2018-06-17T18:00:24.395Z,70.20
2018-06-17T18:02:52.870Z,70.70
2018-06-17T18:05:21.393Z,68.90
2018-06-17T18:07:50.484Z,69.80
2018-06-17T18:10:20.527Z,69.60
2018-06-17T18:12:50.137Z,70.10
2018-06-17T18:15:19.259Z,69.20
2018-06-17T18:17:48.448Z,67.80
2018-06-17T18:20:18.373Z,68.60
2018-06-17T18:22:46.858Z,69.00
2018-06-17T18:25:20.700Z,68.40
2018-06-17T18:28:59.034Z,68.50
2018-06-17T18:31:27.653Z,68.90
2018-06-17T18:36:52.515Z,68.70
2018-06-17T18:39:21.014Z,69.40
2018-06-17T18:41:50.151Z,69.10
2018-06-17T18:44:19.347Z,69.50
2018-06-17T18:46:48.307Z,69.30
2018-06-17T18:49:16.792Z,69.20
2018-06-17T18:51:45.304Z,69.10
2018-06-17T18:54:13.817Z,69.50
2018-06-17T18:56:42.424Z,69.30
2018-06-17T18:59:10.892Z,69.60
2018-06-17T19:01:39.443Z,69.60
2018-06-17T19:04:07.910Z,69.60
2018-06-17T19:06:36.460Z,69.70
2018-06-17T19:10:16.621Z,69.50
2018-06-17T19:12:50.442Z,70.00
2018-06-17T19:15:25.031Z,70.30
2018-06-17T19:17:59.007Z,69.90
2018-06-17T19:20:27.572Z,70.00
2018-06-17T19:22:56.149Z,70.60
2018-06-17T19:25:24.664Z,70.40
2018-06-17T19:27:53.233Z,70.10
2018-06-17T19:30:21.809Z,70.20
2018-06-17T19:32:51.134Z,70.00
2018-06-17T19:35:20.249Z,70.50
2018-06-17T19:37:49.302Z,70.60
2018-06-17T19:40:18.313Z,71.20
2018-06-17T19:42:46.907Z,71.40
2018-06-17T19:45:15.349Z,71.80
2018-06-17T19:47:43.943Z,72.30
2018-06-17T19:50:18.499Z,73.10
2018-06-17T19:52:52.290Z,72.70
2018-06-17T19:55:26.292Z,72.80
2018-06-17T20:00:33.740Z,73.30
2018-06-17T20:03:03.377Z,73.20
2018-06-17T20:08:00.122Z,73.30
2018-06-17T20:10:28.754Z,73.60
2018-06-17T20:12:57.211Z,73.80
2018-06-17T20:15:25.900Z,73.90
2018-06-17T20:17:54.456Z,73.50
2018-06-17T20:20:23.221Z,73.90
2018-06-17T20:22:52.026Z,73.90
2018-06-17T20:25:20.577Z,74.00
2018-06-17T20:27:49.625Z,74.20
2018-06-17T20:30:19.009Z,74.20
2018-06-17T20:32:52.793Z,74.40
2018-06-17T20:35:26.652Z,74.40
2018-06-17T20:38:00.505Z,74.60
2018-06-17T20:40:34.430Z,74.70
2018-06-17T20:43:08.235Z,74.80
2018-06-17T20:48:04.966Z,74.90
2018-06-17T20:50:33.488Z,74.70
2018-06-17T20:53:02.061Z,74.70
2018-06-17T20:55:30.474Z,74.90
2018-06-17T20:57:59.018Z,75.10
2018-06-17T21:00:27.447Z,75.30
2018-06-17T21:02:56.007Z,75.60
2018-06-17T21:05:24.416Z,75.80
2018-06-17T21:07:52.892Z,75.70
2018-06-17T21:10:21.321Z,75.90
2018-06-17T21:12:50.881Z,76.20
2018-06-17T21:15:20.539Z,76.10
2018-06-17T21:17:50.864Z,76.20
2018-06-17T21:20:25.580Z,76.40
2018-06-17T21:22:59.273Z,76.40
2018-06-17T21:25:33.167Z,76.70
2018-06-17T21:28:02.305Z,76.70
2018-06-17T21:30:30.777Z,76.80
2018-06-17T21:32:59.671Z,76.70
2018-06-17T21:35:28.144Z,76.60
2018-06-17T21:37:56.609Z,76.60
2018-06-17T21:40:25.160Z,76.60
2018-06-17T21:42:53.595Z,76.40
2018-06-17T21:45:22.083Z,76.40
2018-06-17T21:47:50.598Z,76.30
2018-06-17T21:50:20.149Z,76.10
2018-06-17T21:52:49.461Z,75.70
2018-06-17T21:55:17.986Z,75.40
2018-06-17T21:57:46.513Z,75.30
2018-06-17T22:00:16.385Z,75.90
2018-06-17T22:02:45.611Z,75.40
2018-06-17T22:05:14.519Z,75.20
2018-06-17T22:07:48.356Z,75.20
2018-06-17T22:10:22.070Z,75.30
2018-06-17T22:12:56.868Z,75.60
2018-06-17T22:15:30.620Z,76.00
2018-06-17T22:17:59.161Z,76.20
2018-06-17T22:20:28.663Z,76.00
2018-06-17T22:22:57.212Z,76.10
2018-06-17T22:25:25.748Z,76.30
2018-06-17T22:27:54.223Z,75.90
2018-06-17T22:30:23.752Z,76.30
2018-06-17T22:32:52.246Z,76.50
2018-06-17T22:35:20.778Z,76.60
2018-06-17T22:37:50.149Z,76.70
2018-06-17T22:40:20.461Z,76.70
2018-06-17T22:42:48.962Z,77.00
2018-06-17T22:45:18.562Z,77.10
2018-06-17T22:47:52.436Z,77.20
2018-06-17T22:50:20.906Z,77.30
2018-06-17T22:53:01.052Z,77.50
2018-06-17T22:55:29.529Z,77.40
2018-06-17T22:58:03.430Z,77.70
2018-06-17T23:00:39.005Z,77.60
2018-06-17T23:03:12.838Z,77.70
2018-06-17T23:05:46.830Z,77.80
2018-06-17T23:09:24.595Z,77.90
2018-06-17T23:11:53.145Z,78.00
2018-06-17T23:14:21.736Z,78.00
2018-06-17T23:16:50.290Z,78.90
2018-06-17T23:19:19.347Z,77.90
2018-06-17T23:21:49.480Z,78.10
2018-06-17T23:24:18.744Z,78.20
2018-06-17T23:26:47.292Z,78.00
2018-06-17T23:29:16.332Z,77.90
2018-06-17T23:31:44.897Z,78.00
2018-06-17T23:34:13.390Z,78.10
2018-06-17T23:36:41.901Z,78.10
2018-06-17T23:39:11.491Z,77.70
2018-06-17T23:41:40.085Z,77.70
2018-06-17T23:44:08.554Z,77.40
2018-06-17T23:46:42.398Z,77.50
2018-06-17T23:49:16.281Z,77.30
2018-06-17T23:51:52.205Z,77.10
2018-06-17T23:54:26.941Z,77.00
2018-06-17T23:56:55.803Z,77.30
2018-06-17T23:59:24.255Z,77.60
